Terminal Aerodrome Forecast
Issued by NWS

Home | Current Version | Previous Version | Text Only | Print | Product List | Glossary On
Versions: 1 2 3 4 5 6 7 8 9 10 11 12 13 14 15 16 17 18 19 20 21 22 23
000
FTUS46 KMTR 040500
TAFSFO
TAF
KSFO 040533Z 0406/0512 25007KT P6SM BKN015
     FM041200 21008KT P6SM OVC015
     FM042000 22014KT P6SM SCT020
     FM042200 26015KT P6SM FEW020
     FM050400 24007KT P6SM BKN015=

USA.gov is the U.S. government's official web portal to all federal, state and local government web resources and services.